createdAt,value
2018-08-07T00:02:58.663Z,7.27
2018-08-07T00:08:01.872Z,6.87
2018-08-07T00:13:05.104Z,7.33
2018-08-07T00:18:08.531Z,7.83
2018-08-07T00:23:11.752Z,7.13
2018-08-07T00:28:14.793Z,6.87
2018-08-07T00:33:17.956Z,7.63
2018-08-07T00:38:21.156Z,7.07
2018-08-07T00:43:24.148Z,7.33
2018-08-07T00:48:27.217Z,7.33
2018-08-07T00:53:30.235Z,7.10
2018-08-07T00:58:33.406Z,6.97
2018-08-07T01:03:36.423Z,6.73
2018-08-07T01:08:39.673Z,7.37
2018-08-07T01:13:42.651Z,7.83
2018-08-07T01:18:45.886Z,6.90
2018-08-07T01:23:48.910Z,6.77
2018-08-07T01:28:51.960Z,6.83
2018-08-07T01:33:55.145Z,7.33
2018-08-07T01:38:58.346Z,7.60
2018-08-07T01:44:01.352Z,7.37
2018-08-07T01:49:04.485Z,7.67
2018-08-07T01:54:07.657Z,8.00
2018-08-07T01:59:10.768Z,6.70
2018-08-07T02:04:13.716Z,7.30
2018-08-07T02:09:18.883Z,8.07
2018-08-07T02:14:21.939Z,7.50
2018-08-07T02:19:24.947Z,7.47
2018-08-07T02:24:27.923Z,8.07
2018-08-07T02:29:31.061Z,7.40
2018-08-07T02:34:34.043Z,8.40
2018-08-07T02:39:37.225Z,6.87
2018-08-07T02:44:40.401Z,8.17
2018-08-07T02:49:43.371Z,8.93
2018-08-07T02:54:46.467Z,8.33
2018-08-07T02:59:49.436Z,8.77
2018-08-07T03:04:52.563Z,7.30
2018-08-07T03:09:55.541Z,7.40
2018-08-07T03:14:58.648Z,7.77
2018-08-07T03:20:01.691Z,8.23
2018-08-07T03:25:06.437Z,8.20
2018-08-07T03:30:12.619Z,8.20
2018-08-07T03:35:15.656Z,8.10
2018-08-07T03:40:19.772Z,8.23
2018-08-07T03:45:22.962Z,7.70
2018-08-07T03:50:26.197Z,8.50
2018-08-07T03:55:29.240Z,9.23
2018-08-07T04:00:36.968Z,8.17
2018-08-07T04:05:40.111Z,8.93
2018-08-07T04:10:43.340Z,9.80
2018-08-07T04:15:46.322Z,9.40
2018-08-07T04:20:49.315Z,8.80
2018-08-07T04:25:52.329Z,8.87
2018-08-07T04:30:55.483Z,9.23
2018-08-07T04:35:58.584Z,7.93
2018-08-07T04:41:01.605Z,7.53
2018-08-07T04:46:04.945Z,8.60
2018-08-07T04:51:08.117Z,9.10
2018-08-07T04:56:11.250Z,9.07
2018-08-07T05:01:14.405Z,9.43
2018-08-07T05:06:17.575Z,8.33
2018-08-07T05:11:20.700Z,10.03
2018-08-07T05:16:23.718Z,8.40
2018-08-07T05:21:27.027Z,7.50
2018-08-07T05:26:30.048Z,6.80
2018-08-07T05:31:33.085Z,7.10
2018-08-07T05:36:36.318Z,7.00
2018-08-07T05:41:39.388Z,7.10
2018-08-07T05:46:42.588Z,7.03
2018-08-07T05:51:45.601Z,7.17
2018-08-07T05:56:48.505Z,6.80
2018-08-07T06:01:51.525Z,7.17
2018-08-07T06:06:54.685Z,7.03
2018-08-07T06:11:57.705Z,7.10
2018-08-07T06:17:00.726Z,7.97
2018-08-07T06:22:04.087Z,7.57
2018-08-07T06:27:07.227Z,8.10
2018-08-07T06:32:10.320Z,8.60
2018-08-07T06:37:13.348Z,7.10
2018-08-07T06:42:16.355Z,7.33
2018-08-07T06:47:19.439Z,8.17
2018-08-07T06:52:22.403Z,7.80
2018-08-07T06:57:25.449Z,8.90
2018-08-07T07:02:28.513Z,8.97
2018-08-07T07:07:31.575Z,8.87
2018-08-07T07:12:34.592Z,9.10
2018-08-07T07:17:37.867Z,9.20
2018-08-07T07:22:42.464Z,7.57
2018-08-07T07:27:45.819Z,9.47
2018-08-07T07:32:50.544Z,9.60
2018-08-07T07:37:53.728Z,8.50
2018-08-07T07:42:56.828Z,8.27
2018-08-07T07:47:59.935Z,9.83
2018-08-07T07:53:02.979Z,8.83
2018-08-07T07:58:06.700Z,9.00
2018-08-07T08:03:09.714Z,10.97
2018-08-07T08:08:12.786Z,10.80
2018-08-07T08:13:15.849Z,10.97
2018-08-07T08:18:18.866Z,10.00
2018-08-07T08:23:22.373Z,11.23
2018-08-07T08:28:25.651Z,10.77
2018-08-07T08:33:28.973Z,10.13
2018-08-07T08:38:32.109Z,10.30
2018-08-07T08:43:35.428Z,11.10
2018-08-07T08:48:38.619Z,12.00
2018-08-07T08:53:41.637Z,12.90
2018-08-07T08:58:44.712Z,11.90
2018-08-07T09:03:48.009Z,12.13
2018-08-07T09:08:51.268Z,12.80
2018-08-07T09:13:54.439Z,10.93
2018-08-07T09:18:57.626Z,10.87
2018-08-07T09:24:00.688Z,11.47
2018-08-07T09:29:03.947Z,11.20
2018-08-07T09:34:07.165Z,10.50
2018-08-07T09:39:11.369Z,10.87
2018-08-07T09:44:14.629Z,11.10
2018-08-07T09:49:17.692Z,10.77
2018-08-07T09:54:20.751Z,10.47
2018-08-07T09:59:24.128Z,14.03
2018-08-07T10:04:27.326Z,10.87
2018-08-07T10:09:30.318Z,10.60
2018-08-07T10:14:33.546Z,10.73
2018-08-07T10:19:36.851Z,11.40
2018-08-07T10:24:40.174Z,10.83
2018-08-07T10:29:43.384Z,10.87
2018-08-07T10:34:46.594Z,10.00
2018-08-07T10:39:49.616Z,12.40
2018-08-07T10:44:52.685Z,11.90
2018-08-07T10:49:55.779Z,11.40
2018-08-07T10:54:58.939Z,12.30
2018-08-07T11:00:02.693Z,13.23
2018-08-07T11:05:07.012Z,11.93
2018-08-07T11:10:11.797Z,11.77
2018-08-07T11:15:18.571Z,12.40
2018-08-07T11:20:21.648Z,12.10
2018-08-07T11:25:26.460Z,11.17
2018-08-07T11:30:30.080Z,11.53
2018-08-07T11:35:33.272Z,11.93
2018-08-07T11:40:36.400Z,10.80
2018-08-07T11:45:39.507Z,12.20
2018-08-07T11:51:13.752Z,11.50
2018-08-07T11:56:16.856Z,11.60
2018-08-07T12:01:20.157Z,12.40
2018-08-07T12:06:23.222Z,11.37
2018-08-07T12:11:26.452Z,12.10
2018-08-07T12:16:29.768Z,12.13
2018-08-07T12:21:33.192Z,12.40
2018-08-07T12:26:36.403Z,10.57
2018-08-07T12:31:39.800Z,12.67
2018-08-07T12:36:42.904Z,11.73
2018-08-07T12:41:46.035Z,12.23
2018-08-07T12:46:49.252Z,11.83
2018-08-07T12:51:52.244Z,13.87
2018-08-07T12:56:55.580Z,13.33
2018-08-07T13:01:58.713Z,13.23
2018-08-07T13:07:01.960Z,13.97
2018-08-07T13:12:05.232Z,14.00
2018-08-07T13:17:08.882Z,17.77
2018-08-07T13:22:12.115Z,16.30
2018-08-07T13:27:15.307Z,14.37
2018-08-07T13:32:18.374Z,16.13
2018-08-07T13:37:21.558Z,13.90
2018-08-07T13:42:24.787Z,15.43
2018-08-07T13:47:28.145Z,14.00
2018-08-07T13:52:31.235Z,13.43
2018-08-07T13:57:34.577Z,15.90
2018-08-07T14:02:38.030Z,13.27
2018-08-07T14:07:41.556Z,13.33
2018-08-07T14:12:44.897Z,13.00
2018-08-07T14:17:48.304Z,13.00
2018-08-07T14:22:51.533Z,12.90
2018-08-07T14:27:54.952Z,10.70
2018-08-07T14:33:00.563Z,11.53
2018-08-07T14:38:03.924Z,10.37
2018-08-07T14:43:07.115Z,11.60
2018-08-07T14:48:10.224Z,10.90
2018-08-07T14:53:13.660Z,12.83
2018-08-07T14:58:16.828Z,11.70
2018-08-07T15:03:20.078Z,12.93
2018-08-07T15:08:23.492Z,12.50
2018-08-07T15:13:27.879Z,11.90
2018-08-07T15:18:31.021Z,13.37
2018-08-07T15:23:34.321Z,13.37
2018-08-07T15:28:37.660Z,13.60
2018-08-07T15:33:40.871Z,10.90
2018-08-07T15:38:44.071Z,11.03
2018-08-07T15:43:47.275Z,9.40
2018-08-07T15:48:50.615Z,10.30
2018-08-07T15:53:54.015Z,9.57
2018-08-07T15:58:57.175Z,10.90
2018-08-07T16:04:00.844Z,11.70
2018-08-07T16:09:07.112Z,15.90
2018-08-07T16:14:10.307Z,12.90
2018-08-07T16:19:13.470Z,11.43
2018-08-07T16:24:16.756Z,11.27
2018-08-07T16:29:20.083Z,12.50
2018-08-07T16:34:23.455Z,21.80
2018-08-07T16:39:26.494Z,13.20
2018-08-07T16:44:29.688Z,11.57
2018-08-07T16:49:32.897Z,11.03
2018-08-07T16:54:36.074Z,10.50
2018-08-07T16:59:39.211Z,10.47
2018-08-07T17:04:43.096Z,10.40
2018-08-07T17:09:46.344Z,19.53
2018-08-07T17:14:49.696Z,27.03
2018-08-07T17:19:52.885Z,10.93
2018-08-07T17:24:56.878Z,16.33
2018-08-07T17:29:59.965Z,8.80
2018-08-07T17:35:03.197Z,10.10
2018-08-07T17:40:08.939Z,9.27
2018-08-07T17:45:12.818Z,9.30
2018-08-07T17:50:23.894Z,10.60
2018-08-07T17:55:27.058Z,21.00
2018-08-07T18:00:30.219Z,35.07
2018-08-07T18:05:33.295Z,32.20
2018-08-07T18:10:36.358Z,20.83
2018-08-07T18:15:39.618Z,11.10
2018-08-07T18:20:42.937Z,10.10
2018-08-07T18:25:46.036Z,9.20
2018-08-07T18:30:49.248Z,11.13
2018-08-07T18:35:52.336Z,13.67
2018-08-07T18:40:55.876Z,14.87
2018-08-07T18:45:59.055Z,14.23
2018-08-07T18:51:02.113Z,10.27
2018-08-07T18:56:05.665Z,9.80
2018-08-07T19:01:08.914Z,10.30
2018-08-07T19:06:12.031Z,12.50
2018-08-07T19:11:15.350Z,10.60
2018-08-07T19:16:19.064Z,9.30
2018-08-07T19:21:22.196Z,10.90
2018-08-07T19:26:25.660Z,10.57
2018-08-07T19:31:28.975Z,10.03
2018-08-07T19:36:32.173Z,9.70
2018-08-07T19:41:35.287Z,10.70
2018-08-07T19:46:38.842Z,9.57
2018-08-07T19:51:42.221Z,8.97
2018-08-07T19:56:45.638Z,7.60
2018-08-07T20:01:48.949Z,8.43
2018-08-07T20:06:52.230Z,8.70
2018-08-07T20:11:55.344Z,8.70
2018-08-07T20:16:58.699Z,8.27
2018-08-07T20:22:01.983Z,8.20
2018-08-07T20:27:05.511Z,7.80
2018-08-07T20:32:09.272Z,8.00
2018-08-07T20:37:12.434Z,7.37
2018-08-07T20:42:15.589Z,8.60
2018-08-07T20:47:19.072Z,8.27
2018-08-07T20:52:22.208Z,6.97
2018-08-07T20:57:25.335Z,7.03
2018-08-07T21:02:28.467Z,7.53
2018-08-07T21:07:31.741Z,7.70
2018-08-07T21:12:34.972Z,8.00
2018-08-07T21:17:38.304Z,8.30
2018-08-07T21:22:41.687Z,7.57
2018-08-07T21:27:45.557Z,7.20
2018-08-07T21:32:48.588Z,8.00
2018-08-07T21:37:52.156Z,7.87
2018-08-07T21:42:56.277Z,7.53
2018-08-07T21:47:59.359Z,8.10
2018-08-07T21:53:02.398Z,9.77
2018-08-07T21:58:05.540Z,7.57
2018-08-07T22:03:09.026Z,11.80
2018-08-07T22:08:13.820Z,7.60
2018-08-07T22:13:17.081Z,8.30
2018-08-07T22:18:20.156Z,8.53
2018-08-07T22:23:23.509Z,8.67
2018-08-07T22:28:26.629Z,8.57
2018-08-07T22:33:30.044Z,7.77
2018-08-07T22:38:33.046Z,7.70
2018-08-07T22:43:36.256Z,7.37
2018-08-07T22:48:39.404Z,6.80
2018-08-07T22:53:42.654Z,6.90
2018-08-07T22:58:45.874Z,7.70
2018-08-07T23:03:49.282Z,6.20
2018-08-07T23:08:52.444Z,6.73
2018-08-07T23:13:55.444Z,7.07
2018-08-07T23:18:58.464Z,6.77
2018-08-07T23:24:01.560Z,7.87
2018-08-07T23:29:04.876Z,7.87
2018-08-07T23:34:07.948Z,7.13
2018-08-07T23:39:11.311Z,7.07
2018-08-07T23:44:14.364Z,7.40
2018-08-07T23:49:17.339Z,8.63
2018-08-07T23:54:20.303Z,31.40
2018-08-07T23:59:23.303Z,10.27
